createdAt,value
2023-03-29T00:02:07.588Z,99965.25
2023-03-29T00:04:34.561Z,99921.25
2023-03-29T00:07:04.852Z,99966.63
2023-03-29T00:09:33.519Z,99928.69
2023-03-29T00:12:01.473Z,99973.75
2023-03-29T00:14:30.829Z,99925.22
2023-03-29T00:16:58.725Z,99928.69
2023-03-29T00:19:26.000Z,99981.34
2023-03-29T00:21:52.983Z,99979.66
2023-03-29T00:24:21.542Z,99941.34
2023-03-29T00:26:48.606Z,99964.38
2023-03-29T00:29:15.480Z,99941.34
2023-03-29T00:31:42.330Z,99927.63
2023-03-29T00:34:09.187Z,99943.06
2023-03-29T00:36:35.929Z,99948.47
2023-03-29T00:39:02.709Z,99946.91
2023-03-29T00:41:29.494Z,99927.38
2023-03-29T00:43:58.120Z,99963.09
2023-03-29T00:46:26.541Z,99949.34
2023-03-29T00:48:56.758Z,99916.78
2023-03-29T00:51:26.941Z,99926.28
2023-03-29T00:53:58.074Z,99943.38
2023-03-29T00:56:32.332Z,99959.13
2023-03-29T00:59:09.692Z,99961.88
2023-03-29T01:01:54.643Z,99958.50
2023-03-29T01:04:43.580Z,99964.38
2023-03-29T01:07:26.111Z,99953.41
2023-03-29T01:10:04.366Z,99945.84
2023-03-29T01:12:36.105Z,99949.31
2023-03-29T01:15:10.151Z,99881.69
2023-03-29T01:17:37.843Z,99912.69
2023-03-29T01:20:43.462Z,99927.75
2023-03-29T01:23:34.920Z,99931.72
2023-03-29T01:26:04.640Z,99936.88
2023-03-29T01:28:40.464Z,99926.94
2023-03-29T01:31:12.000Z,99897.97
2023-03-29T01:33:49.448Z,99897.06
2023-03-29T01:36:27.207Z,99923.03
2023-03-29T01:39:06.076Z,99924.91
2023-03-29T01:42:14.679Z,99908.59
2023-03-29T01:44:55.615Z,99915.03
2023-03-29T01:47:32.008Z,99911.34
2023-03-29T01:50:13.575Z,99879.97
2023-03-29T01:52:49.930Z,99886.19
2023-03-29T01:55:25.008Z,99900.59
2023-03-29T01:57:54.258Z,99907.34
2023-03-29T02:00:24.993Z,99915.72
2023-03-29T02:02:55.208Z,99851.91
2023-03-29T02:05:24.559Z,99902.88
2023-03-29T02:07:52.992Z,99906.88
2023-03-29T02:10:21.822Z,99878.97
2023-03-29T02:12:49.047Z,99868.56
2023-03-29T02:15:19.344Z,99890.44
2023-03-29T02:17:47.944Z,99903.41
2023-03-29T02:20:27.901Z,99895.47
2023-03-29T02:23:02.218Z,99906.69
2023-03-29T02:25:29.674Z,99897.38
2023-03-29T02:27:57.253Z,99845.84
2023-03-29T02:30:29.071Z,99872.31
2023-03-29T02:33:03.745Z,99897.72
2023-03-29T02:35:41.086Z,99884.06
2023-03-29T02:38:11.499Z,99887.53
2023-03-29T02:40:40.441Z,99906.09
2023-03-29T02:43:08.446Z,99836.84
2023-03-29T02:45:37.213Z,99884.97
2023-03-29T02:48:08.541Z,99899.34
2023-03-29T02:50:38.353Z,99906.63
2023-03-29T02:53:14.888Z,99871.25
2023-03-29T02:55:41.643Z,99864.19
2023-03-29T02:58:08.916Z,99903.44
2023-03-29T03:00:38.563Z,99912.59
2023-03-29T03:03:07.986Z,99894.38
2023-03-29T03:05:36.190Z,99911.38
2023-03-29T03:08:02.990Z,99880.63
2023-03-29T03:10:29.730Z,99879.44
2023-03-29T03:12:56.658Z,99870.16
2023-03-29T03:15:23.417Z,99878.38
2023-03-29T03:17:50.173Z,99897.84
2023-03-29T03:20:17.251Z,99851.81
2023-03-29T03:22:48.991Z,99906.63
2023-03-29T03:25:19.559Z,99895.41
2023-03-29T03:27:46.824Z,99873.28
2023-03-29T03:30:13.962Z,99868.94
2023-03-29T03:32:41.581Z,99830.75
2023-03-29T03:35:08.902Z,99882.09
2023-03-29T03:37:35.889Z,99872.03
2023-03-29T03:40:08.941Z,99842.38
2023-03-29T03:42:35.873Z,99873.81
2023-03-29T03:45:02.609Z,99877.25
2023-03-29T03:47:29.448Z,99821.75
2023-03-29T03:49:56.444Z,99835.47
2023-03-29T03:52:23.381Z,99808.91
2023-03-29T03:54:50.378Z,99834.41
2023-03-29T03:57:17.548Z,99820.38
2023-03-29T03:59:44.862Z,99801.84
2023-03-29T04:02:11.590Z,99800.22
2023-03-29T04:04:39.520Z,99798.56
2023-03-29T04:07:06.497Z,99843.34
2023-03-29T04:09:34.456Z,99849.19
2023-03-29T04:12:04.370Z,99831.31
2023-03-29T04:14:32.564Z,99792.88
2023-03-29T04:16:59.304Z,99786.13
2023-03-29T04:19:26.322Z,99835.66
2023-03-29T04:21:53.030Z,99809.44
2023-03-29T04:24:19.753Z,99825.44
2023-03-29T04:26:48.637Z,99847.72
2023-03-29T04:29:15.344Z,99825.81
2023-03-29T04:31:42.061Z,99823.69
2023-03-29T04:34:08.787Z,99847.44
2023-03-29T04:36:35.643Z,99864.16
2023-03-29T04:39:02.339Z,99860.47
2023-03-29T04:41:29.187Z,99832.50
2023-03-29T04:43:56.294Z,99841.47
2023-03-29T04:46:26.768Z,99829.25
2023-03-29T04:48:54.314Z,99836.16
2023-03-29T04:51:22.413Z,99838.44
2023-03-29T04:53:50.470Z,99817.41
2023-03-29T04:56:17.456Z,99808.97
2023-03-29T04:58:44.715Z,99800.19
2023-03-29T05:01:11.563Z,99811.03
2023-03-29T05:03:38.680Z,99827.63
2023-03-29T05:06:09.914Z,99837.56
2023-03-29T05:08:40.459Z,99811.75
2023-03-29T05:11:11.708Z,99828.59
2023-03-29T05:13:38.531Z,99819.00
2023-03-29T05:16:06.999Z,99823.25
2023-03-29T05:18:33.871Z,99837.78
2023-03-29T05:21:00.995Z,99799.69
2023-03-29T05:23:28.906Z,99779.59
2023-03-29T05:25:55.601Z,99774.25
2023-03-29T05:28:22.507Z,99793.88
2023-03-29T05:31:00.295Z,99772.44
2023-03-29T05:33:27.758Z,99831.81
2023-03-29T05:36:06.737Z,99799.22
2023-03-29T05:38:34.073Z,99823.19
2023-03-29T05:41:01.788Z,99818.06
2023-03-29T05:43:31.747Z,99803.50
2023-03-29T05:45:58.735Z,99801.03
2023-03-29T05:48:27.362Z,99809.38
2023-03-29T05:50:55.686Z,99796.53
2023-03-29T05:53:24.300Z,99794.22
2023-03-29T05:55:51.658Z,99811.53
2023-03-29T05:58:19.208Z,99816.78
2023-03-29T06:00:46.512Z,99804.03
2023-03-29T06:03:21.184Z,99783.34
2023-03-29T06:05:57.115Z,99814.56
2023-03-29T06:08:23.878Z,99803.75
2023-03-29T06:10:50.589Z,99793.59
2023-03-29T06:13:18.906Z,99804.50
2023-03-29T06:15:46.130Z,99758.78
2023-03-29T06:18:12.905Z,99806.47
2023-03-29T06:20:39.623Z,99806.59
2023-03-29T06:23:06.334Z,99766.06
2023-03-29T06:25:34.235Z,99758.41
2023-03-29T06:28:01.360Z,99787.69
2023-03-29T06:30:28.480Z,99805.22
2023-03-29T06:32:55.736Z,99791.31
2023-03-29T06:35:22.659Z,99780.25
2023-03-29T06:37:50.944Z,99813.97
2023-03-29T06:40:19.293Z,99809.31
2023-03-29T06:42:46.599Z,99751.91
2023-03-29T06:45:14.199Z,99774.44
2023-03-29T06:47:41.197Z,99795.00
2023-03-29T06:50:08.829Z,99814.03
2023-03-29T06:52:35.558Z,99765.53
2023-03-29T06:55:02.711Z,99765.41
2023-03-29T06:57:29.405Z,99780.97
2023-03-29T06:59:56.165Z,99787.88
2023-03-29T07:02:22.867Z,99782.16
2023-03-29T07:04:49.620Z,99784.75
2023-03-29T07:07:22.646Z,99782.72
2023-03-29T07:09:55.522Z,99799.03
2023-03-29T07:12:23.154Z,99773.88
2023-03-29T07:14:50.111Z,99784.22
2023-03-29T07:17:16.874Z,99783.19
2023-03-29T07:19:43.992Z,99813.06
2023-03-29T07:22:11.357Z,99775.19
2023-03-29T07:24:38.094Z,99769.44
2023-03-29T07:27:05.124Z,99754.13
2023-03-29T07:29:32.762Z,99784.28
2023-03-29T07:31:59.557Z,99774.84
2023-03-29T07:34:27.242Z,99742.19
2023-03-29T07:36:54.711Z,99763.00
2023-03-29T07:39:22.468Z,99777.56
2023-03-29T07:41:49.270Z,99754.84
2023-03-29T07:44:18.374Z,99731.59
2023-03-29T07:46:45.109Z,99731.28
2023-03-29T07:49:11.894Z,99712.50
2023-03-29T07:51:38.633Z,99748.78
2023-03-29T07:54:06.524Z,99721.16
2023-03-29T07:56:33.194Z,99727.56
2023-03-29T07:58:59.939Z,99720.66
2023-03-29T08:01:26.598Z,99747.25
2023-03-29T08:03:53.447Z,99745.81
2023-03-29T08:06:20.198Z,99763.06
2023-03-29T08:08:47.528Z,99768.03
2023-03-29T08:11:14.240Z,99725.81
2023-03-29T08:13:41.061Z,99713.09
2023-03-29T08:16:08.925Z,99753.38
2023-03-29T08:18:35.749Z,99702.91
2023-03-29T08:21:02.815Z,99747.41
2023-03-29T08:23:29.849Z,99715.31
2023-03-29T08:25:56.527Z,99713.03
2023-03-29T08:28:23.394Z,99694.50
2023-03-29T08:30:50.520Z,99703.16
2023-03-29T08:33:17.346Z,99698.50
2023-03-29T08:35:44.134Z,99708.88
2023-03-29T08:38:11.257Z,99701.13
2023-03-29T08:40:38.112Z,99689.84
2023-03-29T08:43:24.046Z,99724.94
2023-03-29T08:46:09.514Z,99734.88
2023-03-29T08:48:44.212Z,99683.44
2023-03-29T08:51:31.493Z,99730.63
2023-03-29T08:54:40.185Z,99718.84
2023-03-29T08:57:37.620Z,99675.16
2023-03-29T09:00:07.138Z,99701.56
2023-03-29T09:02:36.256Z,99700.38
2023-03-29T09:05:28.156Z,99708.34
2023-03-29T09:07:54.927Z,99696.28
2023-03-29T09:10:31.644Z,99685.94
2023-03-29T09:13:27.069Z,99709.28
2023-03-29T09:16:30.654Z,99707.91
2023-03-29T09:19:20.285Z,99703.78
2023-03-29T09:22:08.656Z,99696.00
2023-03-29T09:24:38.842Z,99702.63
2023-03-29T09:27:27.378Z,99686.88
2023-03-29T09:30:13.003Z,99695.50
2023-03-29T09:32:44.348Z,99688.19
2023-03-29T09:35:21.561Z,99676.22
2023-03-29T09:37:51.525Z,99682.41
2023-03-29T09:40:24.742Z,99652.16
2023-03-29T09:42:52.817Z,99684.28
2023-03-29T09:45:19.605Z,99643.63
2023-03-29T09:47:51.922Z,99677.97
2023-03-29T09:50:32.030Z,99671.91
2023-03-29T09:52:59.388Z,99644.47
2023-03-29T09:55:29.468Z,99636.06
2023-03-29T09:58:00.784Z,99658.59
2023-03-29T10:00:28.087Z,99665.50
2023-03-29T10:02:57.929Z,99627.19
2023-03-29T10:05:26.407Z,99651.91
2023-03-29T10:07:57.768Z,99650.78
2023-03-29T10:10:32.634Z,99646.09
2023-03-29T10:13:12.346Z,99642.84
2023-03-29T10:15:39.068Z,99586.16
2023-03-29T10:18:12.793Z,99637.25
2023-03-29T10:20:40.480Z,99629.03
2023-03-29T10:23:08.930Z,99625.56
2023-03-29T10:25:42.956Z,99624.00
2023-03-29T10:28:21.278Z,99635.38
2023-03-29T10:30:55.328Z,99609.97
2023-03-29T10:33:24.372Z,99629.94
2023-03-29T10:35:51.778Z,99621.56
2023-03-29T10:38:20.928Z,99632.78
2023-03-29T10:40:56.046Z,99634.22
2023-03-29T10:43:27.058Z,99633.56
2023-03-29T10:46:06.821Z,99602.03
2023-03-29T10:48:35.342Z,99621.28
2023-03-29T10:51:06.149Z,99626.72
2023-03-29T10:53:35.200Z,99625.56
2023-03-29T10:56:08.307Z,99625.81
2023-03-29T10:59:04.364Z,99620.38
2023-03-29T11:01:54.965Z,99586.16
2023-03-29T11:04:40.085Z,99620.34
2023-03-29T11:07:22.814Z,99623.25
2023-03-29T11:10:11.259Z,99612.81
2023-03-29T11:12:46.985Z,99605.25
2023-03-29T11:15:28.340Z,99568.00
2023-03-29T11:18:13.879Z,99598.97
2023-03-29T11:21:00.983Z,99588.91
2023-03-29T11:24:05.451Z,99590.81
2023-03-29T11:26:43.251Z,99558.41
2023-03-29T11:29:18.782Z,99567.22
2023-03-29T11:32:00.654Z,99569.53
2023-03-29T11:34:40.800Z,99573.69
2023-03-29T11:37:22.328Z,99553.88
2023-03-29T11:40:10.731Z,99561.06
2023-03-29T11:42:43.431Z,99533.78
2023-03-29T11:45:17.790Z,99512.41
2023-03-29T11:47:47.620Z,99535.03
2023-03-29T11:50:20.439Z,99542.78
2023-03-29T11:52:56.690Z,99551.81
2023-03-29T11:55:30.652Z,99528.03
2023-03-29T11:58:16.789Z,99536.56
2023-03-29T12:00:46.385Z,99517.22
2023-03-29T12:03:39.446Z,99520.59
2023-03-29T12:06:36.104Z,99520.81
2023-03-29T12:09:12.804Z,99502.47
2023-03-29T12:11:50.497Z,99523.91
2023-03-29T12:14:49.919Z,99515.81
2023-03-29T12:17:21.238Z,99525.00
2023-03-29T12:20:13.397Z,99507.91
2023-03-29T12:22:40.668Z,99481.66
2023-03-29T12:25:14.660Z,99488.22
2023-03-29T12:28:42.887Z,99486.97
2023-03-29T12:31:50.877Z,99462.69
2023-03-29T12:34:26.617Z,99466.28
2023-03-29T12:37:17.259Z,99456.56
2023-03-29T12:39:44.476Z,99401.91
2023-03-29T12:42:23.019Z,99456.09
2023-03-29T12:44:57.191Z,99461.72
2023-03-29T12:47:31.691Z,99457.75
2023-03-29T12:50:00.518Z,99453.66
2023-03-29T12:52:32.318Z,99453.13
2023-03-29T12:55:03.108Z,99421.84
2023-03-29T12:57:41.060Z,99441.53
2023-03-29T13:00:13.296Z,99432.88
2023-03-29T13:02:40.189Z,99397.56
2023-03-29T13:05:29.396Z,99431.38
2023-03-29T13:07:56.288Z,99421.84
2023-03-29T13:10:37.017Z,99396.56
2023-03-29T13:13:33.891Z,99407.00
2023-03-29T13:16:18.822Z,99401.03
2023-03-29T13:19:06.873Z,99408.31
2023-03-29T13:21:55.391Z,99399.50
2023-03-29T13:24:24.980Z,99397.00
2023-03-29T13:27:10.430Z,99384.13
2023-03-29T13:29:58.975Z,99378.19
2023-03-29T13:32:34.036Z,99347.16
2023-03-29T13:35:16.560Z,99336.38
2023-03-29T13:37:57.868Z,99325.69
2023-03-29T13:40:46.442Z,99358.47
2023-03-29T13:43:22.672Z,99350.03
2023-03-29T13:45:58.535Z,99346.00
2023-03-29T13:48:27.497Z,99313.22
2023-03-29T13:51:08.321Z,99327.88
2023-03-29T13:53:51.836Z,99332.03
2023-03-29T13:56:39.684Z,99344.91
2023-03-29T13:59:19.004Z,99299.91
2023-03-29T14:01:58.029Z,99299.34
2023-03-29T14:04:28.134Z,99301.25
2023-03-29T14:06:56.879Z,99301.94
2023-03-29T14:09:33.429Z,99310.78
2023-03-29T14:12:01.515Z,99291.88
2023-03-29T14:14:32.204Z,99319.97
2023-03-29T14:17:02.010Z,99288.97
2023-03-29T14:19:35.432Z,99307.91
2023-03-29T14:22:03.017Z,99305.03
2023-03-29T14:24:40.476Z,99250.38
2023-03-29T14:27:10.347Z,99298.19
2023-03-29T14:29:37.170Z,99276.19
2023-03-29T14:32:19.086Z,99285.84
2023-03-29T14:34:50.650Z,99255.91
2023-03-29T14:37:35.754Z,99261.66
2023-03-29T14:40:02.495Z,99237.00
2023-03-29T14:42:29.890Z,99272.13
2023-03-29T14:45:05.539Z,99256.72
2023-03-29T14:47:33.758Z,99219.59
2023-03-29T14:50:01.880Z,99209.84
2023-03-29T14:52:30.567Z,99183.72
2023-03-29T14:55:01.059Z,99226.63
2023-03-29T14:57:34.315Z,99212.75
2023-03-29T15:00:16.843Z,99249.84
2023-03-29T15:02:53.944Z,99240.72
2023-03-29T15:05:36.026Z,99242.41
2023-03-29T15:08:04.362Z,99209.19
2023-03-29T15:10:35.812Z,99196.47
2023-03-29T15:13:04.611Z,99225.25
2023-03-29T15:15:38.457Z,99188.78
2023-03-29T15:18:07.747Z,99170.31
2023-03-29T15:20:38.585Z,99205.63
2023-03-29T15:23:14.541Z,99194.59
2023-03-29T15:26:20.147Z,99190.31
2023-03-29T15:28:49.804Z,99172.03
2023-03-29T15:31:19.855Z,99152.03
2023-03-29T15:33:47.131Z,99132.84
2023-03-29T15:36:14.890Z,99121.78
2023-03-29T15:38:45.100Z,99128.00
2023-03-29T15:41:13.646Z,99126.63
2023-03-29T15:43:41.496Z,99125.38
2023-03-29T15:46:08.890Z,99112.19
2023-03-29T15:48:35.830Z,99106.63
2023-03-29T15:51:05.708Z,99086.16
2023-03-29T15:53:33.462Z,99091.69
2023-03-29T15:56:02.098Z,99066.94
2023-03-29T15:58:34.357Z,99067.94
2023-03-29T16:01:34.430Z,99070.13
2023-03-29T16:04:11.300Z,99094.66
2023-03-29T16:06:38.246Z,99021.47
2023-03-29T16:09:07.182Z,99080.94
2023-03-29T16:11:34.364Z,99051.28
2023-03-29T16:14:01.290Z,99012.81
2023-03-29T16:16:28.038Z,99045.78
2023-03-29T16:18:54.776Z,99016.09
2023-03-29T16:21:22.944Z,99056.03
2023-03-29T16:23:50.131Z,99043.81
2023-03-29T16:26:17.641Z,99009.28
2023-03-29T16:28:44.386Z,99006.13
2023-03-29T16:31:12.552Z,99008.34
2023-03-29T16:33:41.110Z,99018.44
2023-03-29T16:36:10.611Z,98993.41
2023-03-29T16:38:37.657Z,98964.31
2023-03-29T16:41:04.617Z,98970.00
2023-03-29T16:43:31.717Z,98928.47
2023-03-29T16:45:58.559Z,98923.06
2023-03-29T16:48:25.385Z,98969.34
2023-03-29T16:50:52.167Z,98957.50
2023-03-29T16:53:20.043Z,98990.06
2023-03-29T16:55:47.985Z,99000.88
2023-03-29T16:58:15.548Z,98986.41
2023-03-29T17:00:45.030Z,98961.50
2023-03-29T17:03:13.283Z,98960.00
2023-03-29T17:05:41.869Z,98988.84
2023-03-29T17:08:10.303Z,98967.94
2023-03-29T17:10:40.672Z,98958.59
2023-03-29T17:13:08.227Z,98914.88
2023-03-29T17:15:38.161Z,98958.50
2023-03-29T17:18:06.584Z,98925.31
2023-03-29T17:20:33.397Z,98943.47
2023-03-29T17:23:00.145Z,98934.06
2023-03-29T17:25:27.090Z,98950.56
2023-03-29T17:27:54.197Z,98933.97
2023-03-29T17:30:21.303Z,98905.72
2023-03-29T17:32:48.421Z,98931.00
2023-03-29T17:35:15.451Z,98926.13
2023-03-29T17:37:42.731Z,98916.19
2023-03-29T17:40:11.370Z,98930.69
2023-03-29T17:42:38.163Z,98926.22
2023-03-29T17:45:05.418Z,98944.78
2023-03-29T17:47:32.086Z,98903.94
2023-03-29T17:49:58.915Z,98863.56
2023-03-29T17:52:26.304Z,98932.38
2023-03-29T17:54:53.044Z,98903.56
2023-03-29T17:57:19.879Z,98903.69
2023-03-29T17:59:46.568Z,98911.59
2023-03-29T18:02:24.566Z,98904.88
2023-03-29T18:04:51.819Z,98918.66
2023-03-29T18:07:18.716Z,98918.41
2023-03-29T18:09:45.492Z,98895.38
2023-03-29T18:12:12.530Z,98899.00
2023-03-29T18:14:39.153Z,98894.06
2023-03-29T18:17:06.056Z,98872.88
2023-03-29T18:19:32.744Z,98832.84
2023-03-29T18:21:59.459Z,98841.94
2023-03-29T18:24:26.197Z,98833.97
2023-03-29T18:26:52.956Z,98838.47
2023-03-29T18:29:19.688Z,98817.09
2023-03-29T18:31:46.461Z,98817.34
2023-03-29T18:34:13.282Z,98821.63
2023-03-29T18:36:39.972Z,98824.06
2023-03-29T18:39:06.669Z,98825.81
2023-03-29T18:41:35.683Z,98836.91
2023-03-29T18:44:02.500Z,98828.66
2023-03-29T18:46:31.355Z,98882.78
2023-03-29T18:48:59.101Z,98851.16
2023-03-29T18:51:28.107Z,98851.66
2023-03-29T18:53:56.063Z,98870.19
2023-03-29T18:56:23.323Z,98814.63
2023-03-29T18:58:50.063Z,98836.91
2023-03-29T19:01:16.789Z,98813.88
2023-03-29T19:03:43.554Z,98772.09
2023-03-29T19:06:11.853Z,98821.88
2023-03-29T19:08:41.482Z,98773.56
2023-03-29T19:11:10.709Z,98791.25
2023-03-29T19:13:37.497Z,98833.38
2023-03-29T19:16:04.900Z,98843.72
2023-03-29T19:18:31.971Z,98807.69
2023-03-29T19:20:58.632Z,98821.75
2023-03-29T19:23:27.313Z,98774.84
2023-03-29T19:26:05.785Z,98788.16
2023-03-29T19:28:34.105Z,98779.63
2023-03-29T19:31:02.461Z,98770.63
2023-03-29T19:33:29.519Z,98750.22
2023-03-29T19:35:56.431Z,98775.41
2023-03-29T19:38:23.207Z,98788.97
2023-03-29T19:40:51.581Z,98758.75
2023-03-29T19:43:18.967Z,98810.28
2023-03-29T19:45:47.981Z,98801.28
2023-03-29T19:48:22.330Z,98768.38
2023-03-29T19:50:50.534Z,98780.00
2023-03-29T19:53:17.235Z,98768.94
2023-03-29T19:55:45.452Z,98755.91
2023-03-29T19:58:12.783Z,98792.31
2023-03-29T20:00:39.602Z,98758.13
2023-03-29T20:03:10.580Z,98759.25
2023-03-29T20:05:38.935Z,98796.63
2023-03-29T20:08:06.808Z,98762.97
2023-03-29T20:10:34.694Z,98723.03
2023-03-29T20:13:02.081Z,98774.16
2023-03-29T20:15:28.850Z,98746.63
2023-03-29T20:17:59.484Z,98753.69
2023-03-29T20:20:28.623Z,98727.94
2023-03-29T20:23:04.553Z,98713.88
2023-03-29T20:25:32.784Z,98710.78
2023-03-29T20:28:01.694Z,98704.81
2023-03-29T20:30:28.615Z,98763.13
2023-03-29T20:32:55.352Z,98698.25
2023-03-29T20:35:22.201Z,98745.03
2023-03-29T20:37:48.869Z,98744.91
2023-03-29T20:40:15.802Z,98745.41
2023-03-29T20:42:42.584Z,98702.94
2023-03-29T20:45:18.535Z,98760.56
2023-03-29T20:47:50.448Z,98718.59
2023-03-29T20:50:20.308Z,98671.56
2023-03-29T20:52:47.115Z,98675.22
2023-03-29T20:55:16.797Z,98722.75
2023-03-29T20:57:43.850Z,98684.22
2023-03-29T21:00:12.299Z,98676.69
2023-03-29T21:02:39.504Z,98713.50
2023-03-29T21:05:06.937Z,98632.06
2023-03-29T21:07:33.883Z,98696.28
2023-03-29T21:10:01.255Z,98655.44
2023-03-29T21:12:28.069Z,98605.50
2023-03-29T21:14:55.327Z,98690.41
2023-03-29T21:17:22.221Z,98658.69
2023-03-29T21:19:49.105Z,98694.78
2023-03-29T21:22:15.877Z,98747.34
2023-03-29T21:24:42.622Z,98730.84
2023-03-29T21:27:09.590Z,98676.25
2023-03-29T21:29:36.262Z,98684.53
2023-03-29T21:32:03.126Z,98708.06
2023-03-29T21:34:29.845Z,98700.56
2023-03-29T21:36:56.832Z,98721.44
2023-03-29T21:39:26.234Z,98688.81
2023-03-29T21:41:53.366Z,98699.81
2023-03-29T21:44:20.449Z,98689.00
2023-03-29T21:46:47.143Z,98676.50
2023-03-29T21:49:13.929Z,98692.94
2023-03-29T21:51:40.724Z,98702.31
2023-03-29T21:54:07.492Z,98729.19
2023-03-29T21:56:34.171Z,98721.94
2023-03-29T21:59:00.937Z,98674.53
2023-03-29T22:01:27.682Z,98723.41
2023-03-29T22:03:54.400Z,98683.84
2023-03-29T22:06:21.419Z,98646.88
2023-03-29T22:08:50.345Z,98660.88
2023-03-29T22:11:17.595Z,98701.44
2023-03-29T22:13:45.064Z,98651.91
2023-03-29T22:16:18.939Z,98651.91
2023-03-29T22:18:49.362Z,98569.94
2023-03-29T22:21:24.891Z,98672.66
2023-03-29T22:23:56.162Z,98659.94
2023-03-29T22:26:27.927Z,98612.72
2023-03-29T22:28:59.316Z,98628.03
2023-03-29T22:31:28.617Z,98666.56
2023-03-29T22:33:55.880Z,98590.09
2023-03-29T22:36:25.413Z,98619.69
2023-03-29T22:38:53.012Z,98703.84
2023-03-29T22:41:22.755Z,98700.31
2023-03-29T22:43:52.381Z,98703.78
2023-03-29T22:46:20.768Z,98703.88
2023-03-29T22:48:47.981Z,98699.78
2023-03-29T22:51:15.438Z,98673.03
2023-03-29T22:53:42.491Z,98661.63
2023-03-29T22:56:09.524Z,98658.16
2023-03-29T22:58:37.368Z,98679.88
2023-03-29T23:01:04.909Z,98671.38
2023-03-29T23:03:32.195Z,98633.44
2023-03-29T23:06:02.471Z,98634.22
2023-03-29T23:08:31.381Z,98599.28
2023-03-29T23:10:58.886Z,98630.09
2023-03-29T23:13:29.480Z,98648.94
2023-03-29T23:16:00.075Z,98602.81
2023-03-29T23:18:28.835Z,98650.94
2023-03-29T23:20:58.021Z,98581.38
2023-03-29T23:23:27.351Z,98682.97
2023-03-29T23:25:55.841Z,98660.38
2023-03-29T23:28:27.357Z,98536.50
2023-03-29T23:30:58.726Z,98615.13
2023-03-29T23:33:26.191Z,98642.28
2023-03-29T23:35:54.470Z,98642.81
2023-03-29T23:38:21.430Z,98524.59
2023-03-29T23:41:01.110Z,98508.19
2023-03-29T23:43:33.031Z,98568.56
2023-03-29T23:46:02.401Z,98581.56
2023-03-29T23:48:30.216Z,98586.69
2023-03-29T23:50:57.459Z,98599.00
2023-03-29T23:53:25.721Z,98478.41
2023-03-29T23:55:55.514Z,98601.22
2023-03-29T23:58:22.378Z,98588.84
